createdAt,value
2023-03-24T00:00:47.752Z,3.85
2023-03-24T00:03:17.785Z,3.60
2023-03-24T00:05:45.647Z,3.75
2023-03-24T00:08:13.140Z,2.97
2023-03-24T00:10:42.540Z,3.28
2023-03-24T00:13:10.189Z,2.92
2023-03-24T00:15:39.180Z,2.67
2023-03-24T00:18:10.670Z,3.20
2023-03-24T00:20:38.252Z,3.10
2023-03-24T00:23:05.941Z,3.10
2023-03-24T00:25:36.128Z,3.35
2023-03-24T00:28:05.859Z,3.17
2023-03-24T00:30:34.971Z,3.00
2023-03-24T00:33:04.212Z,2.83
2023-03-24T00:35:31.905Z,3.15
2023-03-24T00:38:00.501Z,2.95
2023-03-24T00:40:28.501Z,2.60
2023-03-24T00:42:56.242Z,2.70
2023-03-24T00:45:24.055Z,3.50
2023-03-24T00:47:54.461Z,2.58
2023-03-24T00:50:26.914Z,3.00
2023-03-24T00:52:56.144Z,2.63
2023-03-24T00:55:24.029Z,2.72
2023-03-24T00:57:51.877Z,3.38
2023-03-24T01:00:22.151Z,2.95
2023-03-24T01:02:53.753Z,3.00
2023-03-24T01:05:24.266Z,2.60
2023-03-24T01:07:52.885Z,2.63
2023-03-24T01:10:26.019Z,2.60
2023-03-24T01:12:54.911Z,2.50
2023-03-24T01:15:24.593Z,2.60
2023-03-24T01:17:53.324Z,2.65
2023-03-24T01:20:23.138Z,2.63
2023-03-24T01:22:51.963Z,2.78
2023-03-24T01:25:21.551Z,3.45
2023-03-24T01:27:50.691Z,2.88
2023-03-24T01:30:20.461Z,2.90
2023-03-24T01:32:48.595Z,2.70
2023-03-24T01:35:16.747Z,2.80
2023-03-24T01:37:45.718Z,3.00
2023-03-24T01:40:18.883Z,2.40
2023-03-24T01:42:46.799Z,2.67
2023-03-24T01:45:56.560Z,2.47
2023-03-24T01:48:28.602Z,3.17
2023-03-24T01:51:00.997Z,3.13
2023-03-24T01:53:31.830Z,3.10
2023-03-24T01:56:01.480Z,2.65
2023-03-24T01:58:35.143Z,2.80
2023-03-24T02:01:29.935Z,2.80
2023-03-24T02:04:07.592Z,2.97
2023-03-24T02:06:40.961Z,2.92
2023-03-24T02:09:11.762Z,2.88
2023-03-24T02:11:40.664Z,2.78
2023-03-24T02:14:09.350Z,3.42
2023-03-24T02:16:52.491Z,3.25
2023-03-24T02:19:45.487Z,3.50
2023-03-24T02:22:35.912Z,2.80
2023-03-24T02:25:30.568Z,3.40
2023-03-24T02:28:12.661Z,3.15
2023-03-24T02:31:04.036Z,3.70
2023-03-24T02:33:59.215Z,3.08
2023-03-24T02:37:00.388Z,3.03
2023-03-24T02:39:40.158Z,3.28
2023-03-24T02:42:18.594Z,2.88
2023-03-24T02:44:58.122Z,3.30
2023-03-24T02:47:35.495Z,2.83
2023-03-24T02:50:09.876Z,2.97
2023-03-24T02:52:46.232Z,4.00
2023-03-24T02:55:20.342Z,3.50
2023-03-24T02:57:53.867Z,3.60
2023-03-24T03:00:44.906Z,3.05
2023-03-24T03:03:16.359Z,3.38
2023-03-24T03:05:51.299Z,3.17
2023-03-24T03:08:21.635Z,3.58
2023-03-24T03:10:52.759Z,3.10
2023-03-24T03:13:25.299Z,3.70
2023-03-24T03:15:56.522Z,3.30
2023-03-24T03:18:29.136Z,3.00
2023-03-24T03:21:02.080Z,3.05
2023-03-24T03:23:33.408Z,3.88
2023-03-24T03:26:05.999Z,3.42
2023-03-24T03:28:36.688Z,3.92
2023-03-24T03:31:09.022Z,3.45
2023-03-24T03:33:39.994Z,3.65
2023-03-24T03:36:14.965Z,3.13
2023-03-24T03:38:47.594Z,3.53
2023-03-24T03:41:18.360Z,3.47
2023-03-24T03:43:49.693Z,3.67
2023-03-24T03:46:18.928Z,3.25
2023-03-24T03:48:47.784Z,3.63
2023-03-24T03:51:16.132Z,3.58
2023-03-24T03:53:53.615Z,3.22
2023-03-24T03:56:24.662Z,3.78
2023-03-24T03:59:23.505Z,3.50
2023-03-24T04:01:51.283Z,3.78
2023-03-24T04:05:07.642Z,3.38
2023-03-24T04:07:48.636Z,3.13
2023-03-24T04:10:51.996Z,3.45
2023-03-24T04:13:31.074Z,3.45
2023-03-24T04:16:26.694Z,3.47
2023-03-24T04:19:16.978Z,3.90
2023-03-24T04:22:02.931Z,3.40
2023-03-24T04:24:41.145Z,3.88
2023-03-24T04:27:21.934Z,4.28
2023-03-24T04:29:58.190Z,3.70
2023-03-24T04:32:36.793Z,4.30
2023-03-24T04:35:10.507Z,3.17
2023-03-24T04:38:11.650Z,3.33
2023-03-24T04:40:42.794Z,3.50
2023-03-24T04:43:17.029Z,3.40
2023-03-24T04:45:49.569Z,3.67
2023-03-24T04:48:31.504Z,3.60
2023-03-24T04:51:15.282Z,3.60
2023-03-24T04:54:05.059Z,3.30
2023-03-24T04:56:41.577Z,3.40
2023-03-24T04:59:28.025Z,3.22
2023-03-24T05:01:57.950Z,4.55
2023-03-24T05:04:36.910Z,3.60
2023-03-24T05:07:15.400Z,3.58
2023-03-24T05:09:43.951Z,3.90
2023-03-24T05:12:12.913Z,3.65
2023-03-24T05:15:00.148Z,4.10
2023-03-24T05:17:29.270Z,3.90
2023-03-24T05:19:56.931Z,4.75
2023-03-24T05:22:24.536Z,3.20
2023-03-24T05:24:52.113Z,3.30
2023-03-24T05:27:19.776Z,3.22
2023-03-24T05:29:47.716Z,3.55
2023-03-24T05:32:21.625Z,3.42
2023-03-24T05:34:50.829Z,4.15
2023-03-24T05:37:25.370Z,3.10
2023-03-24T05:39:54.848Z,3.65
2023-03-24T05:42:55.879Z,3.17
2023-03-24T05:45:26.625Z,3.45
2023-03-24T05:47:54.864Z,3.42
2023-03-24T05:50:33.446Z,3.63
2023-03-24T05:53:01.606Z,3.33
2023-03-24T05:55:54.985Z,3.60
2023-03-24T05:58:45.868Z,3.33
2023-03-24T06:01:13.698Z,3.22
2023-03-24T06:03:41.371Z,3.83
2023-03-24T06:06:16.899Z,3.35
2023-03-24T06:08:45.805Z,3.40
2023-03-24T06:11:15.246Z,3.50
2023-03-24T06:13:59.020Z,3.15
2023-03-24T06:16:27.091Z,3.40
2023-03-24T06:19:02.047Z,3.22
2023-03-24T06:21:50.717Z,3.10
2023-03-24T06:24:21.433Z,3.42
2023-03-24T06:26:50.070Z,2.95
2023-03-24T06:29:18.813Z,2.67
2023-03-24T06:31:49.299Z,2.60
2023-03-24T06:34:17.439Z,2.88
2023-03-24T06:36:54.336Z,3.65
2023-03-24T06:39:23.849Z,3.45
2023-03-24T06:41:51.536Z,5.20
2023-03-24T06:44:19.088Z,3.83
2023-03-24T06:46:47.271Z,3.20
2023-03-24T06:49:14.871Z,2.97
2023-03-24T06:51:42.431Z,3.78
2023-03-24T06:54:13.956Z,3.25
2023-03-24T06:56:41.721Z,3.80
2023-03-24T06:59:10.183Z,3.22
2023-03-24T07:01:38.624Z,3.20
2023-03-24T07:04:17.478Z,3.08
2023-03-24T07:07:10.143Z,3.10
2023-03-24T07:09:45.181Z,3.03
2023-03-24T07:12:14.643Z,2.90
2023-03-24T07:14:42.710Z,2.90
2023-03-24T07:17:10.309Z,2.60
2023-03-24T07:20:07.928Z,1.70
2023-03-24T07:22:41.535Z,1.60
2023-03-24T07:25:33.553Z,1.20
2023-03-24T07:28:14.353Z,1.00
2023-03-24T07:30:42.044Z,1.05
2023-03-24T07:33:11.997Z,1.10
2023-03-24T07:35:40.692Z,1.30
2023-03-24T07:38:08.674Z,1.25
2023-03-24T07:40:37.788Z,1.10
2023-03-24T07:43:06.582Z,2.10
2023-03-24T07:45:52.031Z,1.20
2023-03-24T07:48:19.730Z,1.20
2023-03-24T07:50:47.508Z,1.02
2023-03-24T07:53:37.755Z,1.30
2023-03-24T07:56:07.717Z,1.30
2023-03-24T07:58:38.677Z,1.15
2023-03-24T08:01:15.234Z,1.20
2023-03-24T08:03:49.350Z,1.00
2023-03-24T08:06:17.049Z,1.00
2023-03-24T08:08:50.186Z,1.00
2023-03-24T08:11:19.149Z,1.10
2023-03-24T08:13:46.686Z,1.30
2023-03-24T08:16:14.430Z,1.20
2023-03-24T08:18:42.010Z,1.55
2023-03-24T08:21:09.509Z,1.52
2023-03-24T08:23:37.209Z,1.38
2023-03-24T08:26:04.858Z,1.55
2023-03-24T08:28:33.915Z,1.63
2023-03-24T08:31:01.531Z,1.45
2023-03-24T08:33:29.129Z,1.10
2023-03-24T08:35:58.417Z,1.15
2023-03-24T08:38:30.872Z,0.80
2023-03-24T08:41:01.925Z,1.35
2023-03-24T08:43:31.240Z,1.33
2023-03-24T08:46:01.179Z,1.33
2023-03-24T08:48:30.457Z,1.30
2023-03-24T08:50:58.016Z,1.88
2023-03-24T08:53:25.772Z,2.20
2023-03-24T08:55:53.326Z,2.10
2023-03-24T08:58:22.911Z,1.45
2023-03-24T09:00:50.591Z,1.10
2023-03-24T09:03:22.338Z,1.17
2023-03-24T09:05:50.564Z,1.33
2023-03-24T09:08:19.971Z,1.83
2023-03-24T09:10:47.734Z,1.15
2023-03-24T09:13:15.770Z,1.42
2023-03-24T09:15:47.726Z,1.20
2023-03-24T09:18:15.989Z,1.40
2023-03-24T09:20:46.107Z,1.50
2023-03-24T09:23:13.893Z,1.50
2023-03-24T09:25:41.526Z,1.60
2023-03-24T09:28:09.556Z,1.25
2023-03-24T09:30:37.266Z,1.58
2023-03-24T09:33:05.311Z,1.25
2023-03-24T09:35:32.938Z,1.30
2023-03-24T09:38:01.893Z,1.90
2023-03-24T09:40:32.129Z,2.00
2023-03-24T09:43:05.055Z,1.40
2023-03-24T09:45:37.732Z,1.98
2023-03-24T09:48:09.832Z,1.95
2023-03-24T09:50:42.863Z,2.05
2023-03-24T09:53:25.883Z,1.80
2023-03-24T09:55:53.824Z,1.38
2023-03-24T09:58:21.683Z,1.73
2023-03-24T10:00:49.451Z,1.30
2023-03-24T10:03:22.701Z,1.33
2023-03-24T10:05:55.398Z,1.65
2023-03-24T10:08:30.805Z,1.33
2023-03-24T10:11:04.708Z,2.00
2023-03-24T10:13:42.344Z,2.22
2023-03-24T10:16:19.586Z,2.05
2023-03-24T10:18:53.152Z,1.70
2023-03-24T10:21:23.222Z,1.65
2023-03-24T10:23:58.777Z,1.65
2023-03-24T10:26:39.607Z,1.85
2023-03-24T10:29:22.947Z,2.30
2023-03-24T10:31:53.305Z,1.95
2023-03-24T10:34:23.410Z,1.38
2023-03-24T10:36:52.315Z,1.40
2023-03-24T10:39:28.434Z,1.77
2023-03-24T10:42:01.958Z,1.35
2023-03-24T10:44:30.074Z,1.30
2023-03-24T10:47:03.571Z,1.13
2023-03-24T10:49:31.214Z,1.38
2023-03-24T10:52:03.709Z,1.42
2023-03-24T10:54:33.067Z,1.17
2023-03-24T10:57:06.065Z,1.98
2023-03-24T10:59:37.462Z,1.52
2023-03-24T11:02:18.448Z,1.40
2023-03-24T11:04:52.231Z,1.30
2023-03-24T11:07:21.613Z,1.65
2023-03-24T11:09:59.324Z,1.80
2023-03-24T11:12:28.971Z,1.75
2023-03-24T11:15:21.481Z,1.58
2023-03-24T11:17:55.082Z,1.98
2023-03-24T11:20:28.249Z,1.30
2023-03-24T11:22:57.983Z,1.30
2023-03-24T11:25:34.250Z,1.35
2023-03-24T11:28:04.296Z,1.45
2023-03-24T11:30:36.017Z,1.42
2023-03-24T11:33:05.113Z,1.90
2023-03-24T11:35:42.184Z,2.13
2023-03-24T11:38:17.553Z,1.73
2023-03-24T11:40:58.241Z,1.20
2023-03-24T11:43:27.144Z,1.92
2023-03-24T11:45:59.837Z,1.13
2023-03-24T11:48:34.630Z,1.50
2023-03-24T11:51:04.023Z,1.70
2023-03-24T11:53:44.437Z,1.60
2023-03-24T11:56:17.513Z,1.98
2023-03-24T11:58:48.333Z,1.95
2023-03-24T12:01:27.616Z,2.03
2023-03-24T12:04:20.600Z,1.80
2023-03-24T12:07:10.183Z,3.90
2023-03-24T12:09:43.915Z,2.17
2023-03-24T12:12:26.191Z,1.92
2023-03-24T12:15:27.346Z,2.75
2023-03-24T12:18:05.838Z,2.80
2023-03-24T12:20:39.004Z,2.10
2023-03-24T12:23:13.000Z,1.60
2023-03-24T12:25:47.240Z,2.00
2023-03-24T12:28:34.848Z,2.10
2023-03-24T12:31:15.321Z,2.50
2023-03-24T12:33:53.374Z,2.53
2023-03-24T12:36:31.784Z,1.95
2023-03-24T12:39:05.705Z,2.50
2023-03-24T12:41:41.931Z,2.00
2023-03-24T12:44:38.398Z,2.03
2023-03-24T12:47:17.396Z,1.65
2023-03-24T12:49:56.456Z,2.33
2023-03-24T12:52:37.357Z,2.75
2023-03-24T12:55:09.466Z,2.00
2023-03-24T12:57:41.180Z,1.45
2023-03-24T13:00:15.063Z,2.15
2023-03-24T13:02:46.440Z,2.20
2023-03-24T13:05:18.684Z,2.33
2023-03-24T13:07:48.348Z,1.95
2023-03-24T13:10:21.306Z,1.92
2023-03-24T13:12:55.310Z,1.73
2023-03-24T13:15:31.227Z,1.90
2023-03-24T13:18:09.129Z,1.77
2023-03-24T13:20:42.315Z,2.65
2023-03-24T13:23:32.382Z,2.53
2023-03-24T13:26:10.112Z,2.00
2023-03-24T13:28:44.834Z,1.58
2023-03-24T13:31:15.174Z,2.50
2023-03-24T13:33:44.909Z,1.88
2023-03-24T13:36:34.506Z,1.50
2023-03-24T13:39:06.196Z,1.98
2023-03-24T13:41:39.506Z,1.48
2023-03-24T13:44:10.474Z,1.40
2023-03-24T13:46:41.873Z,1.55
2023-03-24T13:49:14.946Z,1.45
2023-03-24T13:51:46.172Z,1.38
2023-03-24T13:54:17.351Z,1.42
2023-03-24T13:56:53.859Z,1.15
2023-03-24T13:59:31.723Z,1.20
2023-03-24T14:02:46.752Z,1.25
2023-03-24T14:05:34.245Z,1.65
2023-03-24T14:08:15.436Z,1.30
2023-03-24T14:10:48.016Z,1.40
2023-03-24T14:13:36.105Z,1.55
2023-03-24T14:16:41.980Z,1.33
2023-03-24T14:19:20.134Z,2.30
2023-03-24T14:21:53.468Z,2.10
2023-03-24T14:24:26.044Z,1.33
2023-03-24T14:26:53.739Z,1.95
2023-03-24T14:29:43.122Z,1.60
2023-03-24T14:32:20.118Z,1.33
2023-03-24T14:34:56.860Z,1.48
2023-03-24T14:37:25.713Z,2.03
2023-03-24T14:39:57.209Z,1.77
2023-03-24T14:42:55.473Z,1.35
2023-03-24T14:45:56.773Z,1.35
2023-03-24T14:48:30.549Z,1.30
2023-03-24T14:51:07.761Z,1.23
2023-03-24T14:53:38.768Z,1.15
2023-03-24T14:56:09.650Z,1.25
2023-03-24T14:58:39.317Z,1.45
2023-03-24T15:01:08.357Z,1.30
2023-03-24T15:03:45.802Z,1.10
2023-03-24T15:06:17.047Z,1.20
2023-03-24T15:08:46.981Z,1.02
2023-03-24T15:11:17.472Z,1.20
2023-03-24T15:13:46.391Z,1.40
2023-03-24T15:16:20.445Z,1.25
2023-03-24T15:19:00.582Z,1.38
2023-03-24T15:21:34.496Z,1.58
2023-03-24T15:24:03.258Z,1.80
2023-03-24T15:26:32.599Z,1.30
2023-03-24T15:29:02.209Z,1.65
2023-03-24T15:31:31.152Z,1.20
2023-03-24T15:34:07.632Z,1.30
2023-03-24T15:36:44.828Z,0.90
2023-03-24T15:39:20.900Z,1.35
2023-03-24T15:41:52.085Z,1.40
2023-03-24T15:44:21.500Z,1.40
2023-03-24T15:46:50.065Z,1.23
2023-03-24T15:49:22.385Z,1.45
2023-03-24T15:51:55.166Z,1.60
2023-03-24T15:54:25.917Z,1.92
2023-03-24T15:57:12.628Z,2.00
2023-03-24T15:59:46.650Z,1.65
2023-03-24T16:02:23.037Z,2.80
2023-03-24T16:05:00.252Z,1.35
2023-03-24T16:07:37.690Z,1.88
2023-03-24T16:10:08.393Z,1.95
2023-03-24T16:12:37.641Z,1.52
2023-03-24T16:15:06.930Z,2.15
2023-03-24T16:17:34.786Z,1.60
2023-03-24T16:20:02.611Z,1.60
2023-03-24T16:22:30.381Z,1.35
2023-03-24T16:24:59.413Z,1.52
2023-03-24T16:27:27.191Z,1.92
2023-03-24T16:29:55.793Z,1.67
2023-03-24T16:32:23.662Z,1.67
2023-03-24T16:34:51.236Z,2.45
2023-03-24T16:37:19.329Z,1.80
2023-03-24T16:39:46.958Z,2.15
2023-03-24T16:42:16.165Z,1.90
2023-03-24T16:44:43.852Z,1.92
2023-03-24T16:47:11.856Z,1.90
2023-03-24T16:49:39.546Z,2.25
2023-03-24T16:52:12.608Z,1.98
2023-03-24T16:54:40.816Z,2.80
2023-03-24T16:57:08.483Z,3.00
2023-03-24T16:59:37.476Z,2.45
2023-03-24T17:02:06.056Z,3.63
2023-03-24T17:04:35.310Z,3.78
2023-03-24T17:07:03.118Z,3.65
2023-03-24T17:09:32.160Z,4.75
2023-03-24T17:12:02.176Z,3.70
2023-03-24T17:14:31.025Z,2.80
2023-03-24T17:17:02.744Z,2.13
2023-03-24T17:19:31.068Z,2.28
2023-03-24T17:22:02.094Z,1.98
2023-03-24T17:24:30.361Z,2.03
2023-03-24T17:26:57.939Z,2.40
2023-03-24T17:29:25.544Z,2.03
2023-03-24T17:31:54.348Z,2.30
2023-03-24T17:34:23.287Z,1.88
2023-03-24T17:36:51.859Z,2.40
2023-03-24T17:39:21.581Z,2.13
2023-03-24T17:42:01.393Z,2.10
2023-03-24T17:44:29.023Z,3.28
2023-03-24T17:46:56.856Z,2.70
2023-03-24T17:49:26.427Z,4.97
2023-03-24T17:51:54.004Z,3.10
2023-03-24T17:54:22.357Z,3.47
2023-03-24T17:56:50.028Z,2.92
2023-03-24T17:59:26.966Z,3.28
2023-03-24T18:01:54.629Z,2.78
2023-03-24T18:04:23.719Z,2.90
2023-03-24T18:06:52.743Z,2.50
2023-03-24T18:09:25.900Z,2.20
2023-03-24T18:11:56.051Z,2.45
2023-03-24T18:14:23.624Z,2.20
2023-03-24T18:16:54.211Z,2.53
2023-03-24T18:19:21.920Z,3.25
2023-03-24T18:21:51.704Z,2.40
2023-03-24T18:24:20.791Z,1.85
2023-03-24T18:26:50.371Z,1.90
2023-03-24T18:29:18.230Z,1.58
2023-03-24T18:31:45.963Z,2.10
2023-03-24T18:34:13.657Z,2.00
2023-03-24T18:36:41.318Z,2.15
2023-03-24T18:39:10.727Z,2.40
2023-03-24T18:41:40.587Z,2.92
2023-03-24T18:44:11.951Z,2.45
2023-03-24T18:46:40.376Z,2.55
2023-03-24T18:49:08.423Z,2.28
2023-03-24T18:51:36.403Z,3.40
2023-03-24T18:54:04.149Z,3.38
2023-03-24T18:56:31.780Z,2.03
2023-03-24T18:59:01.416Z,3.33
2023-03-24T19:01:30.290Z,1.92
2023-03-24T19:03:58.258Z,3.05
2023-03-24T19:06:31.361Z,2.10
2023-03-24T19:09:00.226Z,2.22
2023-03-24T19:11:27.949Z,1.80
2023-03-24T19:13:56.836Z,1.90
2023-03-24T19:16:25.997Z,1.60
2023-03-24T19:18:57.685Z,1.63
2023-03-24T19:21:25.712Z,2.22
2023-03-24T19:23:53.286Z,2.00
2023-03-24T19:26:21.175Z,1.80
2023-03-24T19:28:48.813Z,2.30
2023-03-24T19:31:19.579Z,2.22
2023-03-24T19:33:51.442Z,2.42
2023-03-24T19:36:19.726Z,1.77
2023-03-24T19:38:47.349Z,1.92
2023-03-24T19:41:15.906Z,2.20
2023-03-24T19:43:43.739Z,1.88
2023-03-24T19:46:11.492Z,1.33
2023-03-24T19:48:39.127Z,1.70
2023-03-24T19:51:08.384Z,1.67
2023-03-24T19:53:36.059Z,2.00
2023-03-24T19:56:04.232Z,1.77
2023-03-24T19:58:31.976Z,1.60
2023-03-24T20:00:59.785Z,1.70
2023-03-24T20:03:28.849Z,1.58
2023-03-24T20:05:56.633Z,1.70
2023-03-24T20:08:26.011Z,2.10
2023-03-24T20:10:53.657Z,1.80
2023-03-24T20:13:23.671Z,1.88
2023-03-24T20:15:51.462Z,2.00
2023-03-24T20:18:19.189Z,2.40
2023-03-24T20:20:46.934Z,2.00
2023-03-24T20:23:14.618Z,1.70
2023-03-24T20:25:44.403Z,1.80
2023-03-24T20:28:12.250Z,1.60
2023-03-24T20:30:40.286Z,1.83
2023-03-24T20:33:08.107Z,1.92
2023-03-24T20:35:36.616Z,1.40
2023-03-24T20:38:04.481Z,1.70
2023-03-24T20:40:32.088Z,1.95
2023-03-24T20:43:01.052Z,1.80
2023-03-24T20:45:28.822Z,2.10
2023-03-24T20:47:56.626Z,1.85
2023-03-24T20:50:24.742Z,1.60
2023-03-24T20:52:52.459Z,1.77
2023-03-24T20:55:20.315Z,1.40
2023-03-24T20:57:48.335Z,1.98
2023-03-24T21:00:20.316Z,1.30
2023-03-24T21:02:48.145Z,1.73
2023-03-24T21:05:15.935Z,1.70
2023-03-24T21:07:45.446Z,1.83
2023-03-24T21:10:13.775Z,1.80
2023-03-24T21:12:52.274Z,1.50
2023-03-24T21:15:24.728Z,1.63
2023-03-24T21:17:52.904Z,1.67
2023-03-24T21:20:20.901Z,1.67
2023-03-24T21:22:53.340Z,1.65
2023-03-24T21:25:22.361Z,1.52
2023-03-24T21:27:50.254Z,1.80
2023-03-24T21:30:19.163Z,1.90
2023-03-24T21:32:48.656Z,1.83
2023-03-24T21:35:17.715Z,1.92
2023-03-24T21:37:46.716Z,1.77
2023-03-24T21:40:17.148Z,1.95
2023-03-24T21:42:46.724Z,1.73
2023-03-24T21:45:17.634Z,1.95
2023-03-24T21:47:47.166Z,1.77
2023-03-24T21:50:19.160Z,1.70
2023-03-24T21:52:47.875Z,1.83
2023-03-24T21:55:16.994Z,1.48
2023-03-24T21:57:46.202Z,1.80
2023-03-24T22:00:16.694Z,1.80
2023-03-24T22:02:46.331Z,1.85
2023-03-24T22:05:16.551Z,1.92
2023-03-24T22:07:44.598Z,1.58
2023-03-24T22:10:14.412Z,1.98
2023-03-24T22:12:43.108Z,2.05
2023-03-24T22:15:11.842Z,2.30
2023-03-24T22:17:39.711Z,1.98
2023-03-24T22:20:09.097Z,2.85
2023-03-24T22:22:41.393Z,2.03
2023-03-24T22:25:12.119Z,2.28
2023-03-24T22:27:39.966Z,2.38
2023-03-24T22:30:09.323Z,2.47
2023-03-24T22:32:37.641Z,2.70
2023-03-24T22:35:06.956Z,2.35
2023-03-24T22:37:34.922Z,2.17
2023-03-24T22:40:05.581Z,2.65
2023-03-24T22:42:33.334Z,2.30
2023-03-24T22:45:00.921Z,2.08
2023-03-24T22:47:29.063Z,3.55
2023-03-24T22:49:56.762Z,3.22
2023-03-24T22:52:24.945Z,3.33
2023-03-24T22:54:53.252Z,3.60
2023-03-24T22:57:22.533Z,3.38
2023-03-24T22:59:50.591Z,3.38
2023-03-24T23:02:24.269Z,2.88
2023-03-24T23:04:52.088Z,3.70
2023-03-24T23:07:23.086Z,2.72
2023-03-24T23:09:53.271Z,2.95
2023-03-24T23:12:22.385Z,3.33
2023-03-24T23:14:50.334Z,3.25
2023-03-24T23:17:17.944Z,2.75
2023-03-24T23:19:45.592Z,3.33
2023-03-24T23:22:13.230Z,3.10
2023-03-24T23:24:40.788Z,3.03
2023-03-24T23:27:08.706Z,2.90
2023-03-24T23:29:39.360Z,2.40
2023-03-24T23:32:07.616Z,2.75
2023-03-24T23:34:35.732Z,2.80
2023-03-24T23:37:04.764Z,2.78
2023-03-24T23:39:34.157Z,2.88
2023-03-24T23:42:02.123Z,2.80
2023-03-24T23:44:30.189Z,3.03
2023-03-24T23:46:59.180Z,3.10
2023-03-24T23:49:26.867Z,2.75
2023-03-24T23:51:54.459Z,3.35
2023-03-24T23:54:22.155Z,3.50
2023-03-24T23:56:51.519Z,3.10
2023-03-24T23:59:19.180Z,3.33
